sensor_id;sensor_type;location;lat;lon;timestamp;temperature;humidity
19348;DHT22;9810;52.480;9.806;2023-04-09T00:01:16;5.20;99.90
19348;DHT22;9810;52.480;9.806;2023-04-09T00:03:43;5.20;99.90
19348;DHT22;9810;52.480;9.806;2023-04-09T00:06:10;5.20;99.90
19348;DHT22;9810;52.480;9.806;2023-04-09T00:08:38;5.10;99.90
19348;DHT22;9810;52.480;9.806;2023-04-09T00:11:07;5.10;99.90
19348;DHT22;9810;52.480;9.806;2023-04-09T00:13:34;5.20;99.90
19348;DHT22;9810;52.480;9.806;2023-04-09T00:16:01;4.90;99.90
19348;DHT22;9810;52.480;9.806;2023-04-09T00:18:29;4.90;99.90
19348;DHT22;9810;52.480;9.806;2023-04-09T00:20:56;4.80;99.90
19348;DHT22;9810;52.480;9.806;2023-04-09T00:23:23;4.80;99.90
19348;DHT22;9810;52.480;9.806;2023-04-09T00:25:51;4.80;99.90
19348;DHT22;9810;52.480;9.806;2023-04-09T00:28:20;4.80;99.90
19348;DHT22;9810;52.480;9.806;2023-04-09T00:30:47;4.90;99.90
19348;DHT22;9810;52.480;9.806;2023-04-09T00:33:14;4.90;99.90
19348;DHT22;9810;52.480;9.806;2023-04-09T00:35:42;5.00;99.90
19348;DHT22;9810;52.480;9.806;2023-04-09T00:38:09;5.10;99.90
19348;DHT22;9810;52.480;9.806;2023-04-09T00:40:36;4.90;99.90
19348;DHT22;9810;52.480;9.806;2023-04-09T00:43:04;4.90;99.90
19348;DHT22;9810;52.480;9.806;2023-04-09T00:45:32;4.90;99.90
19348;DHT22;9810;52.480;9.806;2023-04-09T00:48:00;5.00;99.90
19348;DHT22;9810;52.480;9.806;2023-04-09T00:50:27;5.10;99.90
19348;DHT22;9810;52.480;9.806;2023-04-09T00:52:55;5.20;99.90
19348;DHT22;9810;52.480;9.806;2023-04-09T00:55:23;5.10;99.90
19348;DHT22;9810;52.480;9.806;2023-04-09T00:57:51;4.90;99.90
19348;DHT22;9810;52.480;9.806;2023-04-09T01:00:18;4.90;99.90
19348;DHT22;9810;52.480;9.806;2023-04-09T01:02:47;5.00;99.90
19348;DHT22;9810;52.480;9.806;2023-04-09T01:05:16;5.10;99.90
19348;DHT22;9810;52.480;9.806;2023-04-09T01:07:53;5.20;99.90
19348;DHT22;9810;52.480;9.806;2023-04-09T01:10:32;5.10;99.90
19348;DHT22;9810;52.480;9.806;2023-04-09T01:13:07;5.20;99.90
19348;DHT22;9810;52.480;9.806;2023-04-09T01:15:40;5.10;99.90
19348;DHT22;9810;52.480;9.806;2023-04-09T01:18:21;5.10;99.90
19348;DHT22;9810;52.480;9.806;2023-04-09T01:20:55;4.90;99.90
19348;DHT22;9810;52.480;9.806;2023-04-09T01:23:31;5.00;99.90
19348;DHT22;9810;52.480;9.806;2023-04-09T01:26:03;4.90;99.90
19348;DHT22;9810;52.480;9.806;2023-04-09T01:28:38;4.90;99.90
19348;DHT22;9810;52.480;9.806;2023-04-09T01:31:10;4.70;99.90
19348;DHT22;9810;52.480;9.806;2023-04-09T01:33:38;4.80;99.90
19348;DHT22;9810;52.480;9.806;2023-04-09T01:36:07;4.80;99.90
19348;DHT22;9810;52.480;9.806;2023-04-09T01:38:35;4.70;99.90
19348;DHT22;9810;52.480;9.806;2023-04-09T01:41:03;4.80;99.90
19348;DHT22;9810;52.480;9.806;2023-04-09T01:43:34;4.70;99.90
19348;DHT22;9810;52.480;9.806;2023-04-09T01:46:03;4.70;99.90
19348;DHT22;9810;52.480;9.806;2023-04-09T01:48:31;4.80;99.90
19348;DHT22;9810;52.480;9.806;2023-04-09T01:50:59;4.70;99.90
19348;DHT22;9810;52.480;9.806;2023-04-09T01:53:27;4.60;99.90
19348;DHT22;9810;52.480;9.806;2023-04-09T01:55:56;4.50;99.90
19348;DHT22;9810;52.480;9.806;2023-04-09T01:58:25;4.50;99.90
19348;DHT22;9810;52.480;9.806;2023-04-09T02:00:58;4.40;99.90
19348;DHT22;9810;52.480;9.806;2023-04-09T02:03:31;4.50;99.90
19348;DHT22;9810;52.480;9.806;2023-04-09T02:06:04;4.60;99.90
19348;DHT22;9810;52.480;9.806;2023-04-09T02:08:34;4.60;99.90
19348;DHT22;9810;52.480;9.806;2023-04-09T02:11:04;4.40;99.90
19348;DHT22;9810;52.480;9.806;2023-04-09T02:13:31;4.30;99.90
19348;DHT22;9810;52.480;9.806;2023-04-09T02:16:02;4.10;99.90
19348;DHT22;9810;52.480;9.806;2023-04-09T02:18:30;4.20;99.90
19348;DHT22;9810;52.480;9.806;2023-04-09T02:20:58;4.10;99.90
19348;DHT22;9810;52.480;9.806;2023-04-09T02:23:26;4.20;99.90
19348;DHT22;9810;52.480;9.806;2023-04-09T02:25:53;4.30;99.90
19348;DHT22;9810;52.480;9.806;2023-04-09T02:28:20;4.30;99.90
19348;DHT22;9810;52.480;9.806;2023-04-09T02:30:48;4.40;99.90
19348;DHT22;9810;52.480;9.806;2023-04-09T02:33:17;4.20;99.90
19348;DHT22;9810;52.480;9.806;2023-04-09T02:35:44;4.10;99.90
19348;DHT22;9810;52.480;9.806;2023-04-09T02:38:11;4.10;99.90
19348;DHT22;9810;52.480;9.806;2023-04-09T02:40:40;4.20;99.90
19348;DHT22;9810;52.480;9.806;2023-04-09T02:43:08;4.10;99.90
19348;DHT22;9810;52.480;9.806;2023-04-09T02:45:36;4.20;99.90
19348;DHT22;9810;52.480;9.806;2023-04-09T02:48:03;4.20;99.90
19348;DHT22;9810;52.480;9.806;2023-04-09T02:50:32;4.20;99.90
19348;DHT22;9810;52.480;9.806;2023-04-09T02:52:59;4.20;99.90
19348;DHT22;9810;52.480;9.806;2023-04-09T02:55:27;4.00;99.90
19348;DHT22;9810;52.480;9.806;2023-04-09T02:57:54;4.10;99.90
19348;DHT22;9810;52.480;9.806;2023-04-09T03:00:21;4.20;99.90
19348;DHT22;9810;52.480;9.806;2023-04-09T03:02:49;4.10;99.90
19348;DHT22;9810;52.480;9.806;2023-04-09T03:05:16;3.90;99.90
19348;DHT22;9810;52.480;9.806;2023-04-09T03:07:45;3.70;99.90
19348;DHT22;9810;52.480;9.806;2023-04-09T03:10:13;3.80;99.90
19348;DHT22;9810;52.480;9.806;2023-04-09T03:12:40;3.80;99.90
19348;DHT22;9810;52.480;9.806;2023-04-09T03:15:09;3.90;99.90
19348;DHT22;9810;52.480;9.806;2023-04-09T03:17:36;3.60;99.90
19348;DHT22;9810;52.480;9.806;2023-04-09T03:20:05;3.60;99.90
19348;DHT22;9810;52.480;9.806;2023-04-09T03:22:35;3.80;99.90
19348;DHT22;9810;52.480;9.806;2023-04-09T03:25:05;3.80;99.90
19348;DHT22;9810;52.480;9.806;2023-04-09T03:27:32;3.80;99.90
19348;DHT22;9810;52.480;9.806;2023-04-09T03:29:59;3.60;99.90
19348;DHT22;9810;52.480;9.806;2023-04-09T03:32:27;3.60;99.90
19348;DHT22;9810;52.480;9.806;2023-04-09T03:34:55;3.60;99.90
19348;DHT22;9810;52.480;9.806;2023-04-09T03:37:22;3.50;99.90
19348;DHT22;9810;52.480;9.806;2023-04-09T03:39:49;3.60;99.90
19348;DHT22;9810;52.480;9.806;2023-04-09T03:42:18;3.50;99.90
19348;DHT22;9810;52.480;9.806;2023-04-09T03:44:45;3.50;99.90
19348;DHT22;9810;52.480;9.806;2023-04-09T03:47:12;3.40;99.90
19348;DHT22;9810;52.480;9.806;2023-04-09T03:49:40;3.50;99.90
19348;DHT22;9810;52.480;9.806;2023-04-09T03:52:07;3.70;99.90
19348;DHT22;9810;52.480;9.806;2023-04-09T03:54:34;3.80;99.90
19348;DHT22;9810;52.480;9.806;2023-04-09T03:57:02;3.60;99.90
19348;DHT22;9810;52.480;9.806;2023-04-09T03:59:31;3.40;99.90
19348;DHT22;9810;52.480;9.806;2023-04-09T04:01:58;3.60;99.90
19348;DHT22;9810;52.480;9.806;2023-04-09T04:04:26;3.60;99.90
19348;DHT22;9810;52.480;9.806;2023-04-09T04:06:53;3.80;99.90
19348;DHT22;9810;52.480;9.806;2023-04-09T04:09:20;3.70;99.90
19348;DHT22;9810;52.480;9.806;2023-04-09T04:11:48;3.80;99.90
19348;DHT22;9810;52.480;9.806;2023-04-09T04:14:15;3.80;99.90
19348;DHT22;9810;52.480;9.806;2023-04-09T04:16:44;3.70;99.90
19348;DHT22;9810;52.480;9.806;2023-04-09T04:19:11;3.60;99.90
19348;DHT22;9810;52.480;9.806;2023-04-09T04:21:38;3.60;99.90
19348;DHT22;9810;52.480;9.806;2023-04-09T04:24:05;3.60;99.90
19348;DHT22;9810;52.480;9.806;2023-04-09T04:26:33;3.60;99.90
19348;DHT22;9810;52.480;9.806;2023-04-09T04:29:00;3.50;99.90
19348;DHT22;9810;52.480;9.806;2023-04-09T04:31:27;3.40;99.90
19348;DHT22;9810;52.480;9.806;2023-04-09T04:33:56;3.30;99.90
19348;DHT22;9810;52.480;9.806;2023-04-09T04:36:23;3.50;99.90
19348;DHT22;9810;52.480;9.806;2023-04-09T04:38:51;3.40;99.90
19348;DHT22;9810;52.480;9.806;2023-04-09T04:41:18;3.40;99.90
19348;DHT22;9810;52.480;9.806;2023-04-09T04:43:46;3.40;99.90
19348;DHT22;9810;52.480;9.806;2023-04-09T04:46:13;3.40;99.90
19348;DHT22;9810;52.480;9.806;2023-04-09T04:48:41;3.30;99.90
19348;DHT22;9810;52.480;9.806;2023-04-09T04:51:10;3.50;99.90
19348;DHT22;9810;52.480;9.806;2023-04-09T04:53:37;3.40;99.90
19348;DHT22;9810;52.480;9.806;2023-04-09T04:56:04;3.50;99.90
19348;DHT22;9810;52.480;9.806;2023-04-09T04:58:32;3.50;99.90
19348;DHT22;9810;52.480;9.806;2023-04-09T05:00:59;3.60;99.90
19348;DHT22;9810;52.480;9.806;2023-04-09T05:03:26;3.50;99.90
19348;DHT22;9810;52.480;9.806;2023-04-09T05:05:53;3.70;99.90
19348;DHT22;9810;52.480;9.806;2023-04-09T05:08:22;3.80;99.90
19348;DHT22;9810;52.480;9.806;2023-04-09T05:10:50;3.60;99.90
19348;DHT22;9810;52.480;9.806;2023-04-09T05:13:20;3.50;99.90
19348;DHT22;9810;52.480;9.806;2023-04-09T05:15:47;3.60;99.90
19348;DHT22;9810;52.480;9.806;2023-04-09T05:18:15;3.60;99.90
19348;DHT22;9810;52.480;9.806;2023-04-09T05:20:42;3.40;99.90
19348;DHT22;9810;52.480;9.806;2023-04-09T05:23:09;3.60;99.90
19348;DHT22;9810;52.480;9.806;2023-04-09T05:25:38;3.70;99.90
19348;DHT22;9810;52.480;9.806;2023-04-09T05:28:05;3.80;99.90
19348;DHT22;9810;52.480;9.806;2023-04-09T05:30:35;3.90;99.90
19348;DHT22;9810;52.480;9.806;2023-04-09T05:33:03;3.80;99.90
19348;DHT22;9810;52.480;9.806;2023-04-09T05:35:30;3.70;99.90
19348;DHT22;9810;52.480;9.806;2023-04-09T05:37:57;3.70;99.90
19348;DHT22;9810;52.480;9.806;2023-04-09T05:40:25;3.60;99.90
19348;DHT22;9810;52.480;9.806;2023-04-09T05:42:54;3.60;99.90
19348;DHT22;9810;52.480;9.806;2023-04-09T05:45:21;3.70;99.90
19348;DHT22;9810;52.480;9.806;2023-04-09T05:47:48;3.70;99.90
19348;DHT22;9810;52.480;9.806;2023-04-09T05:50:16;4.00;99.90
19348;DHT22;9810;52.480;9.806;2023-04-09T05:52:43;3.90;99.90
19348;DHT22;9810;52.480;9.806;2023-04-09T05:55:11;4.10;99.90
19348;DHT22;9810;52.480;9.806;2023-04-09T05:57:38;4.00;99.90
19348;DHT22;9810;52.480;9.806;2023-04-09T06:00:09;4.00;99.90
19348;DHT22;9810;52.480;9.806;2023-04-09T06:02:37;4.00;99.90
19348;DHT22;9810;52.480;9.806;2023-04-09T06:05:05;4.10;99.90
19348;DHT22;9810;52.480;9.806;2023-04-09T06:07:32;4.00;99.90
19348;DHT22;9810;52.480;9.806;2023-04-09T06:10:00;4.10;99.90
19348;DHT22;9810;52.480;9.806;2023-04-09T06:12:27;4.10;99.90
19348;DHT22;9810;52.480;9.806;2023-04-09T06:14:55;4.30;99.90
19348;DHT22;9810;52.480;9.806;2023-04-09T06:17:24;4.30;99.90
19348;DHT22;9810;52.480;9.806;2023-04-09T06:19:51;4.30;99.90
19348;DHT22;9810;52.480;9.806;2023-04-09T06:22:18;4.30;99.90
19348;DHT22;9810;52.480;9.806;2023-04-09T06:24:45;4.50;99.90
19348;DHT22;9810;52.480;9.806;2023-04-09T06:27:13;4.50;99.90
19348;DHT22;9810;52.480;9.806;2023-04-09T06:29:40;4.60;99.90
19348;DHT22;9810;52.480;9.806;2023-04-09T06:32:07;4.80;99.90
19348;DHT22;9810;52.480;9.806;2023-04-09T06:34:36;4.80;99.90
19348;DHT22;9810;52.480;9.806;2023-04-09T06:37:04;4.80;99.90
19348;DHT22;9810;52.480;9.806;2023-04-09T06:39:31;4.90;99.90
19348;DHT22;9810;52.480;9.806;2023-04-09T06:41:58;4.80;99.90
19348;DHT22;9810;52.480;9.806;2023-04-09T06:44:26;4.90;99.90
19348;DHT22;9810;52.480;9.806;2023-04-09T06:46:53;5.00;99.90
19348;DHT22;9810;52.480;9.806;2023-04-09T06:49:20;5.20;99.90
19348;DHT22;9810;52.480;9.806;2023-04-09T06:51:49;5.20;99.90
19348;DHT22;9810;52.480;9.806;2023-04-09T06:54:18;5.30;99.90
19348;DHT22;9810;52.480;9.806;2023-04-09T06:56:45;5.40;99.90
19348;DHT22;9810;52.480;9.806;2023-04-09T06:59:12;5.50;99.90
19348;DHT22;9810;52.480;9.806;2023-04-09T07:01:40;5.70;99.90
19348;DHT22;9810;52.480;9.806;2023-04-09T07:04:08;5.90;99.90
19348;DHT22;9810;52.480;9.806;2023-04-09T07:06:35;5.80;99.90
19348;DHT22;9810;52.480;9.806;2023-04-09T07:09:04;6.10;99.90
19348;DHT22;9810;52.480;9.806;2023-04-09T07:11:31;6.30;99.90
19348;DHT22;9810;52.480;9.806;2023-04-09T07:13:59;6.40;99.90
19348;DHT22;9810;52.480;9.806;2023-04-09T07:16:26;6.30;99.90
19348;DHT22;9810;52.480;9.806;2023-04-09T07:18:53;6.40;99.90
19348;DHT22;9810;52.480;9.806;2023-04-09T07:21:20;6.60;99.90
19348;DHT22;9810;52.480;9.806;2023-04-09T07:23:47;6.90;99.90
19348;DHT22;9810;52.480;9.806;2023-04-09T07:26:16;7.00;99.90
19348;DHT22;9810;52.480;9.806;2023-04-09T07:28:44;7.00;99.90
19348;DHT22;9810;52.480;9.806;2023-04-09T07:31:11;7.40;99.90
19348;DHT22;9810;52.480;9.806;2023-04-09T07:33:38;7.20;99.90
19348;DHT22;9810;52.480;9.806;2023-04-09T07:36:06;7.40;99.90
19348;DHT22;9810;52.480;9.806;2023-04-09T07:38:34;7.40;99.90
19348;DHT22;9810;52.480;9.806;2023-04-09T07:41:02;7.40;99.90
19348;DHT22;9810;52.480;9.806;2023-04-09T07:43:31;7.60;99.90
19348;DHT22;9810;52.480;9.806;2023-04-09T07:45:58;7.90;99.90
19348;DHT22;9810;52.480;9.806;2023-04-09T07:48:26;8.00;99.90
19348;DHT22;9810;52.480;9.806;2023-04-09T07:50:53;8.10;99.90
19348;DHT22;9810;52.480;9.806;2023-04-09T07:53:20;8.40;99.90
19348;DHT22;9810;52.480;9.806;2023-04-09T07:55:49;8.70;99.90
19348;DHT22;9810;52.480;9.806;2023-04-09T07:58:16;8.80;99.90
19348;DHT22;9810;52.480;9.806;2023-04-09T08:00:46;8.50;99.90
19348;DHT22;9810;52.480;9.806;2023-04-09T08:03:14;8.40;99.90
19348;DHT22;9810;52.480;9.806;2023-04-09T08:05:42;8.40;99.90
19348;DHT22;9810;52.480;9.806;2023-04-09T08:08:10;8.00;99.90
19348;DHT22;9810;52.480;9.806;2023-04-09T08:10:37;8.30;99.90
19348;DHT22;9810;52.480;9.806;2023-04-09T08:13:04;8.10;99.90
19348;DHT22;9810;52.480;9.806;2023-04-09T08:15:31;8.00;99.90
19348;DHT22;9810;52.480;9.806;2023-04-09T08:18:00;7.70;99.90
19348;DHT22;9810;52.480;9.806;2023-04-09T08:20:28;7.90;99.90
19348;DHT22;9810;52.480;9.806;2023-04-09T08:22:57;7.60;99.90
19348;DHT22;9810;52.480;9.806;2023-04-09T08:25:26;7.60;99.90
19348;DHT22;9810;52.480;9.806;2023-04-09T08:27:53;7.60;99.90
19348;DHT22;9810;52.480;9.806;2023-04-09T08:30:21;7.80;99.90
19348;DHT22;9810;52.480;9.806;2023-04-09T08:32:48;7.90;99.90
19348;DHT22;9810;52.480;9.806;2023-04-09T08:35:17;8.10;99.90
19348;DHT22;9810;52.480;9.806;2023-04-09T08:37:45;8.00;99.90
19348;DHT22;9810;52.480;9.806;2023-04-09T08:40:12;8.20;99.90
19348;DHT22;9810;52.480;9.806;2023-04-09T08:42:42;8.10;99.90
19348;DHT22;9810;52.480;9.806;2023-04-09T08:45:11;8.20;99.90
19348;DHT22;9810;52.480;9.806;2023-04-09T08:47:40;8.00;99.90
19348;DHT22;9810;52.480;9.806;2023-04-09T08:50:08;8.30;99.90
19348;DHT22;9810;52.480;9.806;2023-04-09T08:52:38;8.50;99.90
19348;DHT22;9810;52.480;9.806;2023-04-09T08:55:07;8.40;99.90
19348;DHT22;9810;52.480;9.806;2023-04-09T08:57:36;8.60;99.90
19348;DHT22;9810;52.480;9.806;2023-04-09T09:00:05;8.30;99.90
19348;DHT22;9810;52.480;9.806;2023-04-09T09:02:33;8.40;99.90
19348;DHT22;9810;52.480;9.806;2023-04-09T09:05:00;8.60;99.90
19348;DHT22;9810;52.480;9.806;2023-04-09T09:07:28;8.60;99.90
19348;DHT22;9810;52.480;9.806;2023-04-09T09:09:58;8.90;99.90
19348;DHT22;9810;52.480;9.806;2023-04-09T09:12:36;8.60;99.90
19348;DHT22;9810;52.480;9.806;2023-04-09T09:15:05;8.60;99.90
19348;DHT22;9810;52.480;9.806;2023-04-09T09:17:34;8.40;99.90
19348;DHT22;9810;52.480;9.806;2023-04-09T09:20:19;8.60;99.90
19348;DHT22;9810;52.480;9.806;2023-04-09T09:22:51;8.40;99.90
19348;DHT22;9810;52.480;9.806;2023-04-09T09:25:20;8.20;99.90
19348;DHT22;9810;52.480;9.806;2023-04-09T09:27:49;8.60;99.90
19348;DHT22;9810;52.480;9.806;2023-04-09T09:30:20;8.90;99.90
19348;DHT22;9810;52.480;9.806;2023-04-09T09:32:51;9.20;99.90
19348;DHT22;9810;52.480;9.806;2023-04-09T09:35:18;8.70;99.90
19348;DHT22;9810;52.480;9.806;2023-04-09T09:37:46;9.10;99.90
19348;DHT22;9810;52.480;9.806;2023-04-09T09:40:26;8.90;99.90
19348;DHT22;9810;52.480;9.806;2023-04-09T09:42:55;9.00;99.90
19348;DHT22;9810;52.480;9.806;2023-04-09T09:45:23;8.80;99.90
19348;DHT22;9810;52.480;9.806;2023-04-09T09:47:51;8.40;99.90
19348;DHT22;9810;52.480;9.806;2023-04-09T09:50:20;8.90;99.90
19348;DHT22;9810;52.480;9.806;2023-04-09T09:52:50;9.00;99.90
19348;DHT22;9810;52.480;9.806;2023-04-09T09:55:23;9.20;99.90
19348;DHT22;9810;52.480;9.806;2023-04-09T09:57:54;9.60;99.90
19348;DHT22;9810;52.480;9.806;2023-04-09T10:00:22;9.50;99.90
19348;DHT22;9810;52.480;9.806;2023-04-09T10:02:55;9.80;99.90
19348;DHT22;9810;52.480;9.806;2023-04-09T10:05:23;9.80;99.90
19348;DHT22;9810;52.480;9.806;2023-04-09T10:07:53;9.70;99.90
19348;DHT22;9810;52.480;9.806;2023-04-09T10:10:23;9.30;99.90
19348;DHT22;9810;52.480;9.806;2023-04-09T10:12:51;9.40;99.90
19348;DHT22;9810;52.480;9.806;2023-04-09T10:15:18;9.60;99.90
19348;DHT22;9810;52.480;9.806;2023-04-09T10:17:46;9.60;99.90
19348;DHT22;9810;52.480;9.806;2023-04-09T10:20:17;9.60;99.90
19348;DHT22;9810;52.480;9.806;2023-04-09T10:22:48;10.10;99.90
19348;DHT22;9810;52.480;9.806;2023-04-09T10:25:16;10.40;99.90
19348;DHT22;9810;52.480;9.806;2023-04-09T10:27:45;11.30;99.90
19348;DHT22;9810;52.480;9.806;2023-04-09T10:30:31;11.20;99.90
19348;DHT22;9810;52.480;9.806;2023-04-09T10:33:11;10.80;99.90
19348;DHT22;9810;52.480;9.806;2023-04-09T10:35:39;10.50;99.90
19348;DHT22;9810;52.480;9.806;2023-04-09T10:38:07;10.60;99.90
19348;DHT22;9810;52.480;9.806;2023-04-09T10:40:41;11.50;99.90
19348;DHT22;9810;52.480;9.806;2023-04-09T10:43:10;12.30;99.90
19348;DHT22;9810;52.480;9.806;2023-04-09T10:45:41;12.10;99.90
19348;DHT22;9810;52.480;9.806;2023-04-09T10:48:11;16.40;99.90
19348;DHT22;9810;52.480;9.806;2023-04-09T10:50:42;17.20;99.90
19348;DHT22;9810;52.480;9.806;2023-04-09T10:53:20;14.40;99.90
19348;DHT22;9810;52.480;9.806;2023-04-09T10:55:49;13.70;99.90
19348;DHT22;9810;52.480;9.806;2023-04-09T10:58:19;12.20;99.90
19348;DHT22;9810;52.480;9.806;2023-04-09T11:00:47;12.20;99.90
19348;DHT22;9810;52.480;9.806;2023-04-09T11:03:25;12.70;99.90
19348;DHT22;9810;52.480;9.806;2023-04-09T11:06:00;12.90;99.90
19348;DHT22;9810;52.480;9.806;2023-04-09T11:08:28;12.40;99.90
19348;DHT22;9810;52.480;9.806;2023-04-09T11:10:57;12.60;99.90
19348;DHT22;9810;52.480;9.806;2023-04-09T11:13:30;11.40;99.90
19348;DHT22;9810;52.480;9.806;2023-04-09T11:15:58;11.20;99.90
19348;DHT22;9810;52.480;9.806;2023-04-09T11:18:29;11.00;99.90
19348;DHT22;9810;52.480;9.806;2023-04-09T11:21:00;11.20;99.90
19348;DHT22;9810;52.480;9.806;2023-04-09T11:23:28;10.70;99.90
19348;DHT22;9810;52.480;9.806;2023-04-09T11:25:55;10.00;99.90
19348;DHT22;9810;52.480;9.806;2023-04-09T11:28:23;9.90;99.90
19348;DHT22;9810;52.480;9.806;2023-04-09T11:30:52;10.00;99.90
19348;DHT22;9810;52.480;9.806;2023-04-09T11:33:19;10.10;99.90
19348;DHT22;9810;52.480;9.806;2023-04-09T11:35:47;10.00;99.90
19348;DHT22;9810;52.480;9.806;2023-04-09T11:38:14;10.20;99.90
19348;DHT22;9810;52.480;9.806;2023-04-09T11:40:43;10.20;99.90
19348;DHT22;9810;52.480;9.806;2023-04-09T11:43:12;9.70;99.90
19348;DHT22;9810;52.480;9.806;2023-04-09T11:45:41;10.10;99.90
19348;DHT22;9810;52.480;9.806;2023-04-09T11:48:10;9.90;99.90
19348;DHT22;9810;52.480;9.806;2023-04-09T11:50:38;10.10;99.90
19348;DHT22;9810;52.480;9.806;2023-04-09T11:53:16;9.90;99.90
19348;DHT22;9810;52.480;9.806;2023-04-09T11:55:46;10.30;99.90
19348;DHT22;9810;52.480;9.806;2023-04-09T11:58:14;10.20;99.90
19348;DHT22;9810;52.480;9.806;2023-04-09T12:00:41;10.20;99.90
19348;DHT22;9810;52.480;9.806;2023-04-09T12:03:11;10.60;99.90
19348;DHT22;9810;52.480;9.806;2023-04-09T12:05:44;10.90;99.90
19348;DHT22;9810;52.480;9.806;2023-04-09T12:08:13;11.30;99.90
19348;DHT22;9810;52.480;9.806;2023-04-09T12:10:41;12.10;99.90
19348;DHT22;9810;52.480;9.806;2023-04-09T12:13:10;12.60;99.90
19348;DHT22;9810;52.480;9.806;2023-04-09T12:15:40;12.90;99.90
19348;DHT22;9810;52.480;9.806;2023-04-09T12:18:09;12.20;99.90
19348;DHT22;9810;52.480;9.806;2023-04-09T12:20:39;11.70;99.90
19348;DHT22;9810;52.480;9.806;2023-04-09T12:23:09;11.50;99.90
19348;DHT22;9810;52.480;9.806;2023-04-09T12:25:38;11.30;99.90
19348;DHT22;9810;52.480;9.806;2023-04-09T12:28:07;11.50;99.90
19348;DHT22;9810;52.480;9.806;2023-04-09T12:30:35;12.20;99.90
19348;DHT22;9810;52.480;9.806;2023-04-09T12:33:03;12.60;99.90
19348;DHT22;9810;52.480;9.806;2023-04-09T12:35:30;12.70;99.90
19348;DHT22;9810;52.480;9.806;2023-04-09T12:38:00;12.10;99.90
19348;DHT22;9810;52.480;9.806;2023-04-09T12:40:29;11.40;99.90
19348;DHT22;9810;52.480;9.806;2023-04-09T12:42:56;11.70;99.90
19348;DHT22;9810;52.480;9.806;2023-04-09T12:45:24;11.70;99.90
19348;DHT22;9810;52.480;9.806;2023-04-09T12:47:52;11.90;99.90
19348;DHT22;9810;52.480;9.806;2023-04-09T12:50:19;11.70;99.90
19348;DHT22;9810;52.480;9.806;2023-04-09T12:52:47;11.70;99.90
19348;DHT22;9810;52.480;9.806;2023-04-09T12:55:15;11.70;99.90
19348;DHT22;9810;52.480;9.806;2023-04-09T12:57:43;12.10;99.90
19348;DHT22;9810;52.480;9.806;2023-04-09T13:00:12;11.80;99.90
19348;DHT22;9810;52.480;9.806;2023-04-09T13:02:39;11.50;99.90
19348;DHT22;9810;52.480;9.806;2023-04-09T13:05:07;12.20;99.90
19348;DHT22;9810;52.480;9.806;2023-04-09T13:07:34;12.50;99.90
19348;DHT22;9810;52.480;9.806;2023-04-09T13:10:01;12.40;99.90
19348;DHT22;9810;52.480;9.806;2023-04-09T13:12:30;12.10;99.90
19348;DHT22;9810;52.480;9.806;2023-04-09T13:14:57;12.00;99.90
19348;DHT22;9810;52.480;9.806;2023-04-09T13:17:25;12.00;99.90
19348;DHT22;9810;52.480;9.806;2023-04-09T13:19:53;12.00;99.90
19348;DHT22;9810;52.480;9.806;2023-04-09T13:22:20;12.30;99.90
19348;DHT22;9810;52.480;9.806;2023-04-09T13:24:47;12.40;99.90
19348;DHT22;9810;52.480;9.806;2023-04-09T13:27:15;12.30;99.90
19348;DHT22;9810;52.480;9.806;2023-04-09T13:29:44;11.70;99.90
19348;DHT22;9810;52.480;9.806;2023-04-09T13:32:11;11.80;99.90
19348;DHT22;9810;52.480;9.806;2023-04-09T13:34:39;12.00;99.90
19348;DHT22;9810;52.480;9.806;2023-04-09T13:37:06;12.10;99.90
19348;DHT22;9810;52.480;9.806;2023-04-09T13:39:34;12.40;99.90
19348;DHT22;9810;52.480;9.806;2023-04-09T13:42:01;12.60;99.90
19348;DHT22;9810;52.480;9.806;2023-04-09T13:44:28;12.30;99.90
19348;DHT22;9810;52.480;9.806;2023-04-09T13:46:57;12.40;99.90
19348;DHT22;9810;52.480;9.806;2023-04-09T13:49:25;12.40;99.90
19348;DHT22;9810;52.480;9.806;2023-04-09T13:51:52;13.10;99.90
19348;DHT22;9810;52.480;9.806;2023-04-09T13:54:20;12.30;99.90
19348;DHT22;9810;52.480;9.806;2023-04-09T13:56:47;12.70;99.90
19348;DHT22;9810;52.480;9.806;2023-04-09T13:59:15;12.70;99.90
19348;DHT22;9810;52.480;9.806;2023-04-09T14:01:42;13.30;99.90
19348;DHT22;9810;52.480;9.806;2023-04-09T14:04:11;13.70;99.90
19348;DHT22;9810;52.480;9.806;2023-04-09T14:06:38;12.60;99.90
19348;DHT22;9810;52.480;9.806;2023-04-09T14:09:06;12.60;99.90
19348;DHT22;9810;52.480;9.806;2023-04-09T14:11:34;12.50;99.90
19348;DHT22;9810;52.480;9.806;2023-04-09T14:14:01;12.50;99.90
19348;DHT22;9810;52.480;9.806;2023-04-09T14:16:29;12.70;99.90
19348;DHT22;9810;52.480;9.806;2023-04-09T14:18:56;12.70;99.90
19348;DHT22;9810;52.480;9.806;2023-04-09T14:21:25;12.70;99.90
19348;DHT22;9810;52.480;9.806;2023-04-09T14:23:53;13.00;99.90
19348;DHT22;9810;52.480;9.806;2023-04-09T14:26:20;13.10;99.90
19348;DHT22;9810;52.480;9.806;2023-04-09T14:28:48;13.40;99.90
19348;DHT22;9810;52.480;9.806;2023-04-09T14:31:15;13.40;99.90
19348;DHT22;9810;52.480;9.806;2023-04-09T14:33:45;13.80;99.90
19348;DHT22;9810;52.480;9.806;2023-04-09T14:36:13;13.10;99.90
19348;DHT22;9810;52.480;9.806;2023-04-09T14:38:42;13.00;99.90
19348;DHT22;9810;52.480;9.806;2023-04-09T14:41:09;13.10;99.90
19348;DHT22;9810;52.480;9.806;2023-04-09T14:43:36;13.20;99.90
19348;DHT22;9810;52.480;9.806;2023-04-09T14:46:04;13.00;99.90
19348;DHT22;9810;52.480;9.806;2023-04-09T14:48:36;13.20;99.90
19348;DHT22;9810;52.480;9.806;2023-04-09T14:51:04;12.90;99.90
19348;DHT22;9810;52.480;9.806;2023-04-09T14:53:31;13.30;99.90
19348;DHT22;9810;52.480;9.806;2023-04-09T14:56:00;13.40;99.90
19348;DHT22;9810;52.480;9.806;2023-04-09T14:58:27;13.60;99.90
19348;DHT22;9810;52.480;9.806;2023-04-09T15:00:55;13.70;99.90
19348;DHT22;9810;52.480;9.806;2023-04-09T15:03:22;13.70;99.90
19348;DHT22;9810;52.480;9.806;2023-04-09T15:05:49;13.50;99.90
19348;DHT22;9810;52.480;9.806;2023-04-09T15:08:17;13.20;99.90
19348;DHT22;9810;52.480;9.806;2023-04-09T15:10:44;13.30;99.90
19348;DHT22;9810;52.480;9.806;2023-04-09T15:13:13;13.40;99.90
19348;DHT22;9810;52.480;9.806;2023-04-09T15:15:41;13.30;99.90
19348;DHT22;9810;52.480;9.806;2023-04-09T15:18:09;13.10;99.90
19348;DHT22;9810;52.480;9.806;2023-04-09T15:20:37;13.00;99.90
19348;DHT22;9810;52.480;9.806;2023-04-09T15:23:04;13.20;99.90
19348;DHT22;9810;52.480;9.806;2023-04-09T15:25:32;13.40;99.90
19348;DHT22;9810;52.480;9.806;2023-04-09T15:28:00;13.20;99.90
19348;DHT22;9810;52.480;9.806;2023-04-09T15:30:29;13.20;99.90
19348;DHT22;9810;52.480;9.806;2023-04-09T15:32:57;13.50;99.90
19348;DHT22;9810;52.480;9.806;2023-04-09T15:35:24;13.60;99.90
19348;DHT22;9810;52.480;9.806;2023-04-09T15:37:54;13.60;99.90
19348;DHT22;9810;52.480;9.806;2023-04-09T15:40:22;13.50;99.90
19348;DHT22;9810;52.480;9.806;2023-04-09T15:42:49;13.50;99.90
19348;DHT22;9810;52.480;9.806;2023-04-09T15:45:17;13.60;99.90
19348;DHT22;9810;52.480;9.806;2023-04-09T15:47:46;13.50;99.90
19348;DHT22;9810;52.480;9.806;2023-04-09T15:50:13;13.20;99.90
19348;DHT22;9810;52.480;9.806;2023-04-09T15:52:41;13.20;99.90
19348;DHT22;9810;52.480;9.806;2023-04-09T15:55:09;13.30;99.90
19348;DHT22;9810;52.480;9.806;2023-04-09T15:57:36;13.40;99.90
19348;DHT22;9810;52.480;9.806;2023-04-09T16:00:05;13.40;99.90
19348;DHT22;9810;52.480;9.806;2023-04-09T16:02:35;13.30;99.90
19348;DHT22;9810;52.480;9.806;2023-04-09T16:05:06;13.20;99.90